Portada
METAR-TAF:

METAR-TAF

Aeroports :

Stàvropol, Rússia

latitud: 45-20N, longitud: 042-00E, altitud: 453 m

Observació

L'informe es va fer fa 38 minuts, a les 08:30 UTC
Vent 10 kt del Est/Sud-Est
Temperatura 24°C
Humitat 50%
Pressió 1020 hPa
Visibilitat 10 km o més
Escasses núvols a una alçada de 2000 ft

METAR: URMT 060830Z 11005MPS 9999 FEW020 24/13 Q1020 R07/010070 NOSIG RMK QFE725

Hora: 13:08 (09:08 UTC)

Pronòstic

L'informe es va fer fa 1 hora i 8 minuts, a les 08:00 UTC
Pronòstic vàlid del 06 a les 09 UTC al 06 a les 18 UTC
Vent 12 kt del Est/Sud-Est amb ràfegues de 23 kt
Visibilitat 10 km o més
Núvols disperses a una alçada de 3000 ft

TAF: URMT 060800Z 0609/0618 12006G12MPS 9999 SCT030

Observacions i pronòstics meteorològics de més de 4000 aeroports (METAR i TAF).

Les estacions disponibles són els punts grocs i vermells al mapa.

Posi el ratolí al punt desitjat per veure el nom de l'estació.

Feu clic per veure les observacions i els pronòstics meteorològics.

Per canviar el mapa: feu clic els botons verds amb una creu de color negre per apropar; al botó verd amb un guió per allunyar la imatge; o en les fletxes verdes per a mapes adjacents.


METAR-TAF: